KRYV

Watertown Municipal Airport

Watertown, Wisconsin, USA
METAR KRYV 150635Z AUTO 00000KT 4SM BR CLR M06/M06 A3018 RMK AO2 T10581058
Observed Flight Rules
Dec-15 @ 06:35 UTC (34 minutes ago) Marginal Visual Flight Rules
Visibility Clouds Conditions
4 miles
  • Clear skies
  • Mist
Temperatures Readings
Current -6°C / 21°F
Dewpoint -6°C / 21°F
Humidity 100%
Altimeter 30.18" Hg
Pressure 1022 hPa
Elevation 254
METAR KRYV 150635Z AUTO 00000KT 4SM BR CLR M06/M06 A3018 RMK AO2 T10581058
Observed Flight Rules
Dec-15 @ 06:35 UTC
(34 minutes ago)
MVFR
Clouds
  • Clear skies
Conditions
  • Mist
Temperature Dewpoint
-6°C / 21°F -6°C / 21°F
Humidity Altimeter Pressure
100% 30.18" Hg 1022 hPa